Terminal Aerodrome Forecast
Issued by NWS Newport/Morehead City, NC

Home | Current Version | Previous Version | Text Only | Print | Product List | Glossary On
Versions: 1 2 3 4 5 6 7 8 9 10 11 12 13 14 15 16 17 18 19
381
FTUS42 KMHX 272345
TAFEWN
TAF
KEWN 272345Z 2800/2824 18005KT P6SM SCT250
      TEMPO 2807/2811 4SM BR
     FM281300 22005KT P6SM VCSH BKN045=

USA.gov is the U.S. government's official web portal to all federal, state and local government web resources and services.